Latest Weather Observations for Cunderdin Airport

IDW60801

Issued at 11:35 am WST Friday 1 August 2014 (issued every 30 minutes, with the page automatically refreshed every 10 minutes)

About weather observations | Map of weather stations | Latest weather observations for WA | Other Formats
Station Details ID: 010286 Name: CUNDERDIN AIRFIELD Lat: -31.62 Lon: 117.22 Height: 216.7 m
Data from the previous 72 hours. | See also: Recent months at Cunderdin Airport
Date/Time
WST
Temp
°C
App
Temp
°C
Dew
Point
Rel
Hum
%
Delta-T
°C
Wind Press
QNH
hPa
Press
MSL
hPa
Rain
since 9 am
mm
Dir
 
Spd
km/h
Gust
km/h
Spd
kts
Gust
kts
01/11:30am 11.9 7.2 5.1 63 3.1 NE 19 26 10 14 1027.9 - 0.0
01/11:00am 11.1 5.8 4.8 65 2.9 ENE 22 30 12 16 1028.4 1028.6 0.0
01/10:30am 10.0 3.8 4.2 67 2.6 ENE 26 32 14 17 1028.6 - 0.0
01/10:00am 9.3 3.4 3.9 69 2.4 ENE 24 37 13 20 1028.8 1029.0 0.0
01/09:30am 8.2 1.9 3.9 74 1.9 ENE 26 33 14 18 1028.7 - 0.0
01/09:00am 6.6 2.0 3.8 82 1.2 E 17 22 9 12 1028.7 1028.9 0.0
01/08:30am 5.3 0.2 2.8 84 1.0 E 19 26 10 14 1028.4 - 0.0
01/08:00am 4.4 0.0 2.6 88 0.7 E 15 20 8 11 1028.1 1028.3 0.0
01/07:30am 3.2 -1.0 1.7 90 0.6 ESE 13 17 7 9 1028.1 - 0.0
01/07:00am 2.6 -1.7 1.3 91 0.5 ESE 13 17 7 9 1027.7 1027.9 0.0
01/06:30am 3.0 -1.6 1.7 91 0.5 E 15 20 8 11 1027.3 - 0.0
01/06:00am 2.8 -1.4 1.6 92 0.5 E 13 19 7 10 1027.1 1027.3 0.0
01/05:30am 2.5 -2.1 1.5 93 0.4 E 15 17 8 9 1027.0 - 0.0
01/05:00am 2.7 -1.5 1.8 94 0.4 E 13 17 7 9 1027.1 1027.3 0.0
01/04:30am 2.5 -1.3 1.8 95 0.3 ESE 11 15 6 8 1026.8 - 0.0
01/04:00am 1.9 -1.6 1.2 95 0.3 E 9 11 5 6 1027.2 1027.4 0.0
01/03:30am 1.2 -2.4 0.5 95 0.3 E 9 13 5 7 1027.4 - 0.0
01/03:00am 1.4 -1.6 0.7 95 0.3 E 6 7 3 4 1027.6 1027.8 0.0
01/02:30am 1.9 0.1 1.2 95 0.3 CALM 0 0 0 0 1027.6 - 0.0
01/02:00am 0.6 -1.4 -0.3 94 0.3 CALM 0 0 0 0 1027.7 1027.9 0.0
01/01:30am 1.4 -0.5 0.5 94 0.3 CALM 0 0 0 0 1027.9 - 0.0
01/01:00am 1.3 -1.0 0.4 94 0.3 NE 2 6 1 3 1028.0 1028.2 0.0
01/12:30am 1.0 -1.0 0.0 93 0.4 CALM 0 0 0 0 1027.9 - 0.0
01/12:00am 2.4 -0.1 1.5 94 0.3 E 4 7 2 4 1027.8 1028.0 0.0
 
Date/Time
WST
Temp
°C
App
Temp
°C
Dew
Point
Rel
Hum
%
Delta-T
°C
Wind Press
QNH
hPa
Press
MSL
hPa
Rain
since 9 am
mm
Dir
 
Spd
km/h
Gust
km/h
Spd
kts
Gust
kts
31/11:30pm 2.1 -1.0 1.1 93 0.4 ENE 7 7 4 4 1028.1 - 0.0
31/11:00pm 1.4 -1.9 0.1 91 0.5 NE 7 9 4 5 1028.2 1028.4 0.0
31/10:30pm 3.0 0.0 1.7 91 0.5 ENE 7 7 4 4 1028.3 - 0.0
31/10:00pm 3.3 0.2 1.2 86 0.8 E 7 7 4 4 1028.1 1028.3 0.0
31/09:30pm 5.8 2.3 3.6 86 0.9 ESE 11 15 6 8 1028.0 - 0.0
31/09:00pm 5.7 2.6 3.5 86 0.9 ESE 9 11 5 6 1027.7 1027.9 0.0
31/08:30pm 6.4 3.4 4.1 85 1.0 ESE 9 11 5 6 1027.6 - 0.0
31/08:00pm 6.6 3.9 3.9 83 1.2 ESE 7 9 4 5 1027.8 1028.0 0.0
31/07:30pm 7.3 4.0 4.6 83 1.2 SE 11 13 6 7 1027.7 - 0.0
31/07:00pm 7.5 4.6 4.5 81 1.3 SE 9 13 5 7 1027.7 1027.9 0.0
31/06:30pm 8.6 5.7 4.8 77 1.7 SE 9 15 5 8 1027.4 - 0.0
31/06:00pm 9.5 6.3 5.3 75 1.9 ESE 11 17 6 9 1027.1 1027.3 0.0
31/05:30pm 10.0 6.5 5.4 73 2.1 SE 13 20 7 11 1026.9 - 0.0
31/05:00pm 10.4 6.5 5.4 71 2.3 SE 15 20 8 11 1026.7 1026.9 0.0
31/04:30pm 11.1 6.4 5.0 66 2.8 SE 19 26 10 14 1026.5 - 0.0
31/04:00pm 11.9 7.0 5.3 64 3.1 SE 20 33 11 18 1026.4 1026.6 0.0
31/03:30pm 12.4 8.2 5.6 63 3.2 SE 17 24 9 13 1026.4 - 0.0
31/03:00pm 11.7 7.0 5.1 64 3.0 SE 19 24 10 13 1026.3 1026.5 0.0
31/02:30pm 11.8 7.4 4.5 61 3.3 SE 17 26 9 14 1026.5 - 0.0
31/02:00pm 11.9 7.7 5.8 66 2.9 SSE 17 26 9 14 1026.5 1026.7 0.0
31/01:30pm 12.3 7.7 5.7 64 3.1 SSE 19 24 10 13 1026.6 - 0.0
31/01:00pm 12.3 8.0 5.2 62 3.3 SE 17 26 9 14 1026.9 1027.1 0.0
31/12:30pm 12.0 7.7 5.4 64 3.1 SSE 17 26 9 14 1027.3 - 0.0
31/12:00pm 12.1 7.7 5.0 62 3.3 SSE 17 24 9 13 1027.5 1027.7 0.0
31/11:30am 11.0 6.1 4.2 63 3.1 SSE 19 28 10 15 1027.8 - 0.0
31/11:00am 11.8 7.7 4.3 60 3.4 ESE 15 22 8 12 1027.8 1028.0 0.0
31/10:30am 11.5 6.4 4.0 60 3.4 ESE 20 26 11 14 1027.8 - 0.0
31/10:00am 11.6 7.3 5.3 65 2.9 SSE 17 24 9 13 1027.6 1027.8 0.0
31/09:30am 11.2 7.2 4.9 65 2.9 SE 15 26 8 14 1027.4 - 0.0
31/09:00am 10.7 7.1 5.0 68 2.6 SE 13 17 7 9 1027.3 1027.5 0.0
31/08:30am 10.0 7.8 6.0 76 1.9 SE 7 11 4 6 1026.9 - 0.0
31/08:00am 8.5 6.1 5.3 80 1.4 SSE 7 11 4 6 1026.3 1026.5 0.0
31/07:30am 7.5 4.2 4.8 83 1.2 SSE 11 15 6 8 1025.9 - 0.0
31/07:00am 7.5 3.8 4.6 82 1.3 S 13 19 7 10 1025.4 1025.6 0.0
31/06:30am 7.8 4.1 4.7 81 1.4 SSE 13 17 7 9 1024.9 - 0.0
31/06:00am 8.9 4.5 4.9 76 1.8 S 17 22 9 12 1024.5 1024.7 0.0
31/05:30am 10.0 5.5 6.9 81 1.5 S 20 26 11 14 1024.2 - 0.0
31/05:00am 10.0 6.2 9.2 95 0.4 SSW 19 26 10 14 1023.8 1024.0 0.0
31/04:30am 9.9 8.1 9.3 96 0.3 SSW 9 11 5 6 1023.9 - 0.0
31/04:00am 9.1 8.8 8.5 96 0.3 CALM 0 6 0 3 1023.5 1023.7 0.0
31/03:30am 8.3 6.4 7.7 96 0.3 S 7 9 4 5 1023.4 - 0.0
31/03:00am 7.1 5.9 6.4 95 0.3 WNW 2 7 1 4 1023.1 1023.3 0.0
31/02:30am 7.0 6.1 6.1 94 0.4 CALM 0 0 0 0 1022.9 - 0.0
31/02:00am 7.9 6.4 7.0 94 0.4 W 4 7 2 4 1022.7 1022.9 0.0
31/01:30am 8.5 6.6 7.6 94 0.4 WNW 7 9 4 5 1022.8 - 0.0
31/01:00am 8.9 6.7 7.8 93 0.5 W 9 11 5 6 1022.7 1022.9 0.0
31/12:30am 10.1 8.2 9.0 93 0.5 WSW 9 11 5 6 1022.6 - 0.0
31/12:00am 10.4 7.8 9.2 92 0.6 W 13 15 7 8 1022.4 1022.6 0.0
 
Date/Time
WST
Temp
°C
App
Temp
°C
Dew
Point
Rel
Hum
%
Delta-T
°C
Wind Press
QNH
hPa
Press
MSL
hPa
Rain
since 9 am
mm
Dir
 
Spd
km/h
Gust
km/h
Spd
kts
Gust
kts
30/11:30pm 11.5 9.1 10.1 91 0.7 WNW 13 15 7 8 1022.4 - 0.0
30/11:00pm 11.5 9.9 10.2 92 0.7 W 9 11 5 6 1022.3 1022.5 0.0
30/10:30pm 11.2 9.1 9.8 91 0.7 W 11 13 6 7 1022.4 - 0.0
30/10:00pm 11.6 9.6 10.2 91 0.7 W 11 13 6 7 1022.4 1022.6 0.0
30/09:30pm 11.3 9.6 9.9 91 0.7 WNW 9 11 5 6 1022.4 - 0.0
30/09:00pm 10.9 8.3 9.2 89 0.9 NW 13 17 7 9 1022.4 1022.6 0.0
30/08:30pm 11.1 7.8 9.5 90 0.8 N 17 19 9 10 1022.2 - 0.0
30/08:00pm 10.6 7.9 9.0 90 0.8 N 13 15 7 8 1022.2 1022.4 0.0
30/07:30pm 10.8 8.5 8.9 88 1.0 W 11 13 6 7 1022.2 - 0.0
30/07:00pm 11.7 9.2 9.6 87 1.1 WNW 13 15 7 8 1022.2 1022.4 0.0
30/06:30pm 12.2 9.3 9.6 84 1.3 WNW 15 17 8 9 1021.9 - 0.0
30/06:00pm 13.2 10.4 10.0 81 1.7 WNW 15 17 8 9 1021.7 1021.9 0.0
30/05:30pm 14.5 11.4 10.3 76 2.2 WNW 17 22 9 12 1021.6 - 0.0
30/05:00pm 15.2 12.4 10.0 71 2.7 W 15 24 8 13 1021.5 1021.7 0.0
30/04:30pm 15.6 11.3 9.5 67 3.2 W 22 26 12 14 1021.3 - 0.0
30/04:00pm 16.1 12.2 10.8 71 2.8 W 22 28 12 15 1021.2 1021.4 0.0
30/03:30pm 16.2 12.4 11.2 72 2.7 W 22 28 12 15 1021.1 - 0.0
30/03:00pm 16.2 11.1 10.7 70 2.9 W 28 35 15 19 1021.1 1021.3 0.0
30/02:30pm 16.3 11.6 10.8 70 3.0 W 26 37 14 20 1021.1 - 0.0
30/02:00pm 16.5 11.9 11.0 70 3.0 W 26 35 14 19 1020.9 1021.1 0.0
30/01:30pm 16.3 12.0 10.8 70 3.0 W 24 30 13 16 1021.0 - 0.0
30/01:00pm 16.1 11.3 10.4 69 3.0 W 26 33 14 18 1021.1 1021.3 0.0
30/12:30pm 15.8 11.4 10.3 70 2.9 WNW 24 32 13 17 1021.3 - 0.0
30/12:00pm 15.6 10.8 10.4 71 2.8 W 26 33 14 18 1021.8 1022.0 0.0
30/11:30am 15.7 12.1 10.5 71 2.8 W 20 33 11 18 1022.1 - 0.0
30/11:00am 15.6 12.0 10.6 72 2.7 W 20 26 11 14 1022.4 1022.6 0.0
30/10:30am 15.4 11.8 10.4 72 2.7 W 20 26 11 14 1022.7 - 0.0
30/10:00am 15.3 11.9 10.7 74 2.5 WNW 19 22 10 12 1022.8 1023.0 0.0
30/09:30am 14.6 12.0 10.6 77 2.1 N 15 20 8 11 1022.8 - 0.0
30/09:00am 14.0 11.3 10.2 78 2.0 WNW 15 20 8 11 1022.7 1022.9 0.0
30/08:30am 13.6 10.9 10.2 80 1.8 NW 15 19 8 10 1022.6 - 0.0
30/08:00am 13.1 10.8 10.3 83 1.5 NW 13 15 7 8 1022.5 1022.7 0.0
30/07:30am 12.8 9.6 9.8 82 1.6 N 17 20 9 11 1022.4 - 0.0
30/07:00am 12.2 10.2 10.1 87 1.1 N 11 17 6 9 1022.3 1022.5 0.0
30/06:30am 12.3 10.3 10.0 86 1.2 NNW 11 15 6 8 1022.2 - 0.0
30/06:00am 12.4 10.0 10.1 86 1.2 WNW 13 15 7 8 1022.2 1022.4 0.0
30/05:30am 12.3 10.1 10.7 90 0.8 NW 13 17 7 9 1022.2 - 0.0
30/05:00am 11.7 9.9 10.8 94 0.5 NW 11 15 6 8 1022.2 1022.4 0.0
30/04:30am 10.5 8.3 9.3 92 0.6 WNW 11 13 6 7 1022.1 - 0.0
30/04:00am 10.7 8.4 9.0 89 0.8 N 11 13 6 7 1022.0 1022.2 0.0
30/03:30am 12.3 10.4 10.5 89 0.9 WNW 11 11 6 6 1022.2 - 0.0
30/03:00am 12.5 10.6 10.6 88 1.0 NNW 11 15 6 8 1022.4 1022.6 0.0
30/02:30am 12.6 10.4 10.7 88 1.0 N 13 15 7 8 1022.7 - 0.0
30/02:00am 12.4 10.9 10.5 88 1.0 NNW 9 11 5 6 1022.9 1023.1 0.0
30/01:30am 12.5 11.3 10.4 87 1.1 WNW 7 9 4 5 1023.3 - 0.0
30/01:00am 12.3 10.3 10.2 87 1.1 N 11 13 6 7 1023.4 1023.6 0.0
30/12:30am 12.5 10.4 9.9 84 1.3 NW 11 15 6 8 1023.3 - 0.0
30/12:00am 12.2 10.6 10.1 87 1.1 NNW 9 13 5 7 1023.4 1023.6 0.0
 
Date/Time
WST
Temp
°C
App
Temp
°C
Dew
Point
Rel
Hum
%
Delta-T
°C
Wind Press
QNH
hPa
Press
MSL
hPa
Rain
since 9 am
mm
Dir
 
Spd
km/h
Gust
km/h
Spd
kts
Gust
kts
29/11:30pm 12.4 10.1 10.3 87 1.1 WNW 13 19 7 10 1023.6 - 0.0
29/11:00pm 12.3 10.1 10.7 90 0.8 W 13 20 7 11 1023.6 1023.8 0.0
29/10:30pm 11.8 10.0 10.7 93 0.6 NNW 11 15 6 8 1023.8 - 0.0
29/10:00pm 11.5 9.2 10.6 94 0.5 NNW 13 15 7 8 1023.9 1024.1 0.0
29/09:30pm 10.3 7.7 9.2 93 0.6 N 13 13 7 7 1024.1 - 0.0
29/09:00pm 9.9 7.5 8.8 93 0.5 N 11 13 6 7 1023.9 1024.1 0.0
29/08:30pm 9.8 8.2 8.7 93 0.5 N 7 9 4 5 1023.9 - 0.0
29/08:00pm 10.4 8.9 9.2 92 0.6 NNW 7 9 4 5 1023.9 1024.1 0.0
29/07:30pm 11.1 9.3 9.5 90 0.8 NNW 9 11 5 6 1023.8 - 0.0
29/07:00pm 12.6 11.5 10.8 89 0.9 WNW 7 9 4 5 1023.7 1023.9 0.0
29/06:30pm 13.8 12.6 11.5 86 1.2 W 9 11 5 6 1023.6 - 0.0
29/06:00pm 14.6 13.1 11.9 84 1.5 NW 11 13 6 7 1023.3 1023.5 0.0
29/05:30pm 14.7 13.9 11.8 83 1.6 N 7 9 4 5 1023.0 - 0.0
29/05:00pm 15.8 13.9 11.8 77 2.2 N 13 17 7 9 1023.0 1023.2 0.0
29/04:30pm 16.3 14.4 11.9 75 2.4 NNW 13 17 7 9 1022.9 - 0.0
29/04:00pm 16.5 13.9 11.9 74 2.5 NNW 17 20 9 11 1022.9 1023.1 0.0
29/03:30pm 16.6 14.7 11.7 73 2.7 W 13 17 7 9 1023.2 - 0.0
29/03:00pm 16.6 13.5 11.7 73 2.7 W 19 24 10 13 1023.1 1023.3 0.0
29/02:30pm 16.7 13.8 11.0 69 3.1 WNW 17 24 9 13 1022.9 - 0.0
29/02:00pm 16.5 13.4 11.6 73 2.7 WNW 19 24 10 13 1022.8 1023.0 0.0
29/01:30pm 16.6 13.8 11.5 72 2.8 WNW 17 20 9 11 1022.9 - 0.0
29/01:00pm 16.7 12.9 11.0 69 3.1 NW 22 28 12 15 1023.0 1023.2 0.0
29/12:30pm 17.3 15.2 12.4 73 2.7 NW 15 20 8 11 1023.4 - 0.0
29/12:00pm 16.2 13.0 12.0 76 2.3 N 20 26 11 14 1024.2 1024.3 0.0

Other Formats:

Comma delimited format used in spreadsheet applications
http://www.bom.gov.au/fwo/IDW60801/IDW60801.95625.axf

JavaScript Object Notation format (JSON) in row-major order
http://www.bom.gov.au/fwo/IDW60801/IDW60801.95625.json